createdAt,value
2022-12-04T00:01:22.443Z,95.68
2022-12-04T00:03:53.632Z,94.68
2022-12-04T00:06:23.708Z,111.38
2022-12-04T00:08:52.374Z,95.38
2022-12-04T00:11:23.793Z,108.97
2022-12-04T00:13:51.861Z,93.78
2022-12-04T00:16:22.425Z,105.00
2022-12-04T00:18:50.634Z,96.95
2022-12-04T00:21:20.253Z,97.88
2022-12-04T00:23:48.463Z,83.07
2022-12-04T00:26:19.235Z,80.18
2022-12-04T00:28:49.504Z,98.63
2022-12-04T00:31:20.258Z,100.47
2022-12-04T00:33:48.376Z,85.65
2022-12-04T00:36:19.002Z,71.70
2022-12-04T00:38:47.632Z,67.85
2022-12-04T00:41:18.293Z,72.35
2022-12-04T00:43:47.663Z,69.18
2022-12-04T00:46:16.678Z,72.57
2022-12-04T00:48:45.140Z,72.32
2022-12-04T00:51:15.193Z,74.85
2022-12-04T00:53:43.006Z,80.00
2022-12-04T00:56:14.285Z,84.80
2022-12-04T00:58:43.012Z,80.93
2022-12-04T01:01:15.110Z,80.03
2022-12-04T01:03:43.687Z,77.15
2022-12-04T01:06:19.807Z,81.88
2022-12-04T01:08:48.178Z,89.72
2022-12-04T01:11:16.881Z,97.03
2022-12-04T01:13:45.051Z,86.90
2022-12-04T01:16:19.177Z,124.05
2022-12-04T01:18:47.249Z,149.13
2022-12-04T01:21:15.657Z,154.32
2022-12-04T01:23:44.032Z,125.78
2022-12-04T01:26:13.611Z,111.85
2022-12-04T01:28:41.647Z,121.88
2022-12-04T01:31:13.196Z,116.93
2022-12-04T01:33:43.318Z,90.90
2022-12-04T01:36:13.719Z,98.72
2022-12-04T01:38:42.216Z,93.22
2022-12-04T01:41:12.472Z,81.88
2022-12-04T01:43:41.312Z,108.82
2022-12-04T01:46:10.539Z,108.13
2022-12-04T01:48:45.156Z,88.97
2022-12-04T01:51:18.616Z,82.72
2022-12-04T01:53:52.761Z,76.93
2022-12-04T01:56:23.912Z,74.07
2022-12-04T01:58:55.617Z,73.43
2022-12-04T02:04:21.525Z,70.80
2022-12-04T02:06:49.794Z,75.90
2022-12-04T02:09:23.021Z,76.68
2022-12-04T02:12:04.282Z,76.75
2022-12-04T02:14:40.070Z,71.75
2022-12-04T02:17:17.611Z,79.45
2022-12-04T02:20:03.631Z,78.78
2022-12-04T02:22:51.536Z,74.28
2022-12-04T02:25:25.903Z,75.30
2022-12-04T02:28:06.019Z,77.82
2022-12-04T02:30:38.460Z,76.75
2022-12-04T02:33:12.741Z,74.78
2022-12-04T02:35:45.312Z,74.45
2022-12-04T02:38:22.170Z,80.35
2022-12-04T02:40:56.480Z,81.57
2022-12-04T02:43:31.209Z,83.30
2022-12-04T02:46:02.404Z,88.75
2022-12-04T02:48:34.284Z,71.53
2022-12-04T02:51:05.409Z,89.07
2022-12-04T02:53:37.231Z,83.05
2022-12-04T02:56:10.003Z,93.10
2022-12-04T02:58:43.403Z,89.45
2022-12-04T03:01:23.965Z,74.90
2022-12-04T03:03:58.972Z,85.22
2022-12-04T03:06:30.709Z,74.80
2022-12-04T03:09:04.367Z,82.10
2022-12-04T03:11:36.873Z,103.32
2022-12-04T03:14:14.851Z,90.82
2022-12-04T03:16:44.183Z,86.80
2022-12-04T03:19:17.558Z,79.63
2022-12-04T03:21:51.028Z,78.25
2022-12-04T03:24:23.446Z,72.68
2022-12-04T03:26:57.259Z,82.85
2022-12-04T03:29:32.776Z,81.18
2022-12-04T03:32:07.792Z,95.22
2022-12-04T03:34:44.281Z,91.35
2022-12-04T03:37:17.070Z,86.32
2022-12-04T03:39:54.092Z,84.53
2022-12-04T03:42:26.664Z,88.03
2022-12-04T03:45:02.493Z,77.60
2022-12-04T03:47:35.919Z,83.35
2022-12-04T03:50:09.566Z,71.40
2022-12-04T03:52:45.872Z,63.65
2022-12-04T03:55:27.811Z,79.97
2022-12-04T03:58:01.010Z,68.67
2022-12-04T04:00:33.178Z,63.17
2022-12-04T04:03:07.689Z,67.57
2022-12-04T04:05:37.951Z,75.53
2022-12-04T04:08:22.833Z,78.78
2022-12-04T04:10:53.843Z,74.90
2022-12-04T04:13:45.141Z,80.82
2022-12-04T04:16:37.275Z,73.30
2022-12-04T04:19:22.457Z,62.72
2022-12-04T04:22:10.732Z,63.53
2022-12-04T04:24:44.077Z,76.70
2022-12-04T04:27:12.470Z,61.42
2022-12-04T04:29:40.503Z,58.25
2022-12-04T04:32:14.985Z,62.40
2022-12-04T04:34:51.478Z,65.10
2022-12-04T04:37:28.570Z,67.75
2022-12-04T04:40:02.698Z,66.90
2022-12-04T04:42:35.982Z,69.97
2022-12-04T04:45:08.575Z,74.68
2022-12-04T04:47:44.755Z,74.43
2022-12-04T04:50:14.541Z,72.45
2022-12-04T04:52:47.313Z,74.22
2022-12-04T04:55:17.195Z,73.60
2022-12-04T04:57:45.508Z,76.50
2022-12-04T05:00:16.079Z,80.22
2022-12-04T05:02:45.767Z,78.32
2022-12-04T05:05:14.269Z,76.28
2022-12-04T05:07:42.345Z,85.07
2022-12-04T05:10:11.323Z,70.30
2022-12-04T05:12:39.362Z,97.82
2022-12-04T05:15:08.355Z,90.20
2022-12-04T05:17:36.771Z,80.68
2022-12-04T05:20:07.051Z,86.43
2022-12-04T05:22:36.743Z,88.18
2022-12-04T05:25:05.406Z,79.68
2022-12-04T05:27:33.716Z,83.75
2022-12-04T05:30:01.519Z,71.93
2022-12-04T05:32:30.813Z,78.10
2022-12-04T05:34:59.150Z,73.95
2022-12-04T05:37:28.788Z,67.45
2022-12-04T05:39:56.729Z,75.28
2022-12-04T05:42:24.912Z,85.07
2022-12-04T05:44:52.686Z,75.32
2022-12-04T05:47:21.080Z,59.42
2022-12-04T05:49:49.007Z,81.30
2022-12-04T05:52:17.081Z,82.78
2022-12-04T05:54:46.320Z,66.10
2022-12-04T05:57:14.384Z,67.47
2022-12-04T05:59:42.177Z,76.07
2022-12-04T06:02:10.302Z,61.42
2022-12-04T06:04:38.397Z,71.30
2022-12-04T06:07:07.126Z,69.60
2022-12-04T06:09:35.048Z,64.20
2022-12-04T06:12:05.547Z,77.93
2022-12-04T06:14:39.047Z,87.15
2022-12-04T06:17:08.190Z,68.75
2022-12-04T06:19:35.927Z,82.97
2022-12-04T06:22:03.956Z,94.53
2022-12-04T06:24:31.986Z,90.70
2022-12-04T06:29:50.038Z,72.88
2022-12-04T06:32:21.685Z,89.53
2022-12-04T06:34:52.976Z,78.13
2022-12-04T06:37:22.453Z,81.18
2022-12-04T06:39:50.548Z,86.72
2022-12-04T06:42:18.688Z,75.47
2022-12-04T06:44:46.690Z,82.03
2022-12-04T06:47:16.364Z,88.50
2022-12-04T06:49:46.113Z,75.15
2022-12-04T06:52:14.336Z,91.82
2022-12-04T06:54:42.515Z,69.70
2022-12-04T07:00:13.727Z,42.20
2022-12-04T07:02:43.535Z,47.38
2022-12-04T07:05:12.163Z,48.17
2022-12-04T07:07:40.273Z,52.35
2022-12-04T07:10:09.081Z,48.10
2022-12-04T07:12:37.236Z,55.65
2022-12-04T07:15:05.970Z,50.47
2022-12-04T07:17:34.331Z,55.05
2022-12-04T07:20:03.464Z,47.95
2022-12-04T07:22:31.859Z,47.88
2022-12-04T07:24:59.759Z,41.20
2022-12-04T07:27:27.790Z,46.38
2022-12-04T07:29:55.951Z,43.33
2022-12-04T07:32:24.464Z,48.50
2022-12-04T07:34:52.592Z,49.45
2022-12-04T07:37:21.963Z,41.22
2022-12-04T07:39:52.759Z,49.40
2022-12-04T07:42:24.263Z,60.10
2022-12-04T07:44:52.633Z,44.10
2022-12-04T07:47:20.623Z,50.33
2022-12-04T07:49:48.439Z,44.67
2022-12-04T07:52:16.756Z,58.00
2022-12-04T07:54:45.900Z,49.40
2022-12-04T07:57:13.892Z,51.60
2022-12-04T07:59:42.107Z,56.55
2022-12-04T08:02:10.197Z,51.83
2022-12-04T08:04:38.462Z,46.25
2022-12-04T08:07:06.739Z,71.22
2022-12-04T08:09:34.567Z,63.63
2022-12-04T08:12:04.154Z,62.63
2022-12-04T08:14:32.065Z,71.70
2022-12-04T08:17:00.085Z,47.85
2022-12-04T08:19:28.177Z,48.78
2022-12-04T08:21:56.379Z,46.17
2022-12-04T08:24:24.386Z,42.10
2022-12-04T08:26:52.507Z,47.63
2022-12-04T08:29:21.923Z,46.42
2022-12-04T08:31:50.041Z,43.65
2022-12-04T08:34:17.927Z,56.15
2022-12-04T08:36:46.183Z,60.15
2022-12-04T08:39:13.970Z,48.25
2022-12-04T08:41:42.108Z,48.10
2022-12-04T08:44:10.419Z,49.10
2022-12-04T08:46:40.300Z,43.72
2022-12-04T08:49:08.224Z,45.92
2022-12-04T08:51:36.738Z,40.60
2022-12-04T08:54:06.899Z,38.47
2022-12-04T08:56:37.461Z,39.53
2022-12-04T08:59:05.770Z,39.08
2022-12-04T09:01:33.923Z,40.15
2022-12-04T09:04:03.239Z,44.95
2022-12-04T09:06:31.709Z,40.95
2022-12-04T09:08:59.419Z,36.15
2022-12-04T09:11:30.192Z,41.90
2022-12-04T09:13:58.324Z,44.22
2022-12-04T09:16:27.393Z,48.00
2022-12-04T09:18:55.980Z,50.10
2022-12-04T09:21:26.686Z,61.42
2022-12-04T09:23:54.644Z,53.83
2022-12-04T09:26:25.466Z,48.20
2022-12-04T09:28:54.458Z,49.63
2022-12-04T09:31:24.147Z,42.47
2022-12-04T09:33:52.777Z,47.75
2022-12-04T09:36:21.516Z,45.00
2022-12-04T09:38:52.444Z,38.40
2022-12-04T09:41:39.593Z,39.72
2022-12-04T09:44:14.612Z,42.42
2022-12-04T09:46:51.027Z,43.42
2022-12-04T09:49:24.190Z,36.05
2022-12-04T09:51:55.484Z,37.00
2022-12-04T09:54:28.405Z,37.67
2022-12-04T09:57:02.023Z,38.75
2022-12-04T09:59:33.114Z,37.92
2022-12-04T10:02:11.355Z,38.30
2022-12-04T10:04:39.848Z,47.30
2022-12-04T10:07:17.419Z,45.55
2022-12-04T10:09:54.291Z,49.80
2022-12-04T10:12:28.336Z,72.47
2022-12-04T10:15:18.334Z,136.55
2022-12-04T10:18:01.995Z,113.82
2022-12-04T10:20:47.825Z,77.68
2022-12-04T10:23:26.655Z,43.13
2022-12-04T10:25:56.695Z,42.85
2022-12-04T10:28:32.346Z,45.58
2022-12-04T10:31:03.465Z,42.50
2022-12-04T10:33:39.058Z,44.22
2022-12-04T10:36:08.205Z,44.33
2022-12-04T10:38:42.399Z,52.03
2022-12-04T10:41:19.512Z,46.58
2022-12-04T10:43:49.639Z,50.65
2022-12-04T10:46:23.826Z,53.13
2022-12-04T10:48:56.018Z,49.60
2022-12-04T10:51:24.149Z,38.05
2022-12-04T10:53:52.817Z,44.22
2022-12-04T10:56:24.431Z,43.80
2022-12-04T10:59:01.450Z,46.83
2022-12-04T11:01:31.269Z,48.55
2022-12-04T11:04:03.045Z,48.03
2022-12-04T11:06:32.076Z,51.80
2022-12-04T11:09:02.000Z,47.22
2022-12-04T11:11:34.378Z,44.13
2022-12-04T11:14:05.202Z,43.42
2022-12-04T11:16:39.195Z,46.03
2022-12-04T11:19:22.924Z,41.38
2022-12-04T11:21:51.134Z,43.92
2022-12-04T11:24:23.749Z,44.25
2022-12-04T11:26:53.684Z,43.50
2022-12-04T11:29:29.666Z,46.03
2022-12-04T11:32:04.091Z,45.10
2022-12-04T11:34:39.940Z,48.17
2022-12-04T11:37:20.514Z,44.72
2022-12-04T11:39:49.787Z,41.05
2022-12-04T11:42:24.351Z,41.72
2022-12-04T11:44:55.423Z,45.63
2022-12-04T11:47:26.331Z,44.70
2022-12-04T11:50:03.357Z,43.13
2022-12-04T11:52:46.375Z,46.85
2022-12-04T11:55:23.879Z,48.80
2022-12-04T11:58:16.562Z,44.20
2022-12-04T12:00:57.069Z,51.80
2022-12-04T12:03:32.841Z,60.95
2022-12-04T12:06:26.916Z,50.15
2022-12-04T12:09:09.628Z,53.42
2022-12-04T12:11:42.426Z,50.22
2022-12-04T12:16:58.566Z,49.83
2022-12-04T12:19:45.508Z,51.25
2022-12-04T12:22:26.110Z,51.13
2022-12-04T12:25:04.655Z,50.65
2022-12-04T12:27:47.350Z,54.40
2022-12-04T12:30:20.560Z,52.85
2022-12-04T12:33:01.869Z,56.80
2022-12-04T12:35:35.008Z,53.72
2022-12-04T12:38:07.846Z,53.42
2022-12-04T12:43:12.250Z,51.10
2022-12-04T12:45:48.157Z,52.70
2022-12-04T12:48:29.420Z,51.47
2022-12-04T12:51:28.637Z,52.03
2022-12-04T12:53:53.786Z,49.38
2022-12-04T12:56:31.536Z,48.95
2022-12-04T12:59:05.143Z,46.75
2022-12-04T13:01:43.466Z,50.22
2022-12-04T13:04:16.714Z,48.33
2022-12-04T13:06:46.848Z,47.05
2022-12-04T13:09:25.424Z,49.35
2022-12-04T13:11:59.652Z,50.55
2022-12-04T13:14:28.212Z,51.50
2022-12-04T13:17:02.133Z,55.45
2022-12-04T13:19:33.775Z,56.72
2022-12-04T13:22:12.849Z,55.28
2022-12-04T13:25:07.039Z,58.72
2022-12-04T13:27:47.505Z,55.25
2022-12-04T13:30:20.075Z,51.40
2022-12-04T13:33:19.290Z,48.90
2022-12-04T13:36:09.916Z,50.75
2022-12-04T13:38:57.919Z,50.80
2022-12-04T13:41:29.541Z,48.22
2022-12-04T13:44:02.815Z,49.85
2022-12-04T13:46:35.634Z,51.88
2022-12-04T13:49:26.311Z,51.05
2022-12-04T13:51:55.950Z,65.88
2022-12-04T13:54:30.770Z,77.78
2022-12-04T13:57:17.540Z,80.32
2022-12-04T13:59:45.846Z,108.57
2022-12-04T14:02:27.682Z,92.43
2022-12-04T14:05:00.668Z,106.68
2022-12-04T14:07:33.166Z,113.88
2022-12-04T14:10:04.605Z,107.97
2022-12-04T14:12:36.199Z,104.93
2022-12-04T14:15:07.563Z,102.60
2022-12-04T14:17:37.744Z,101.40
2022-12-04T14:20:10.150Z,111.47
2022-12-04T14:22:44.283Z,107.57
2022-12-04T14:25:42.565Z,111.28
2022-12-04T14:28:23.728Z,114.22
2022-12-04T14:31:04.709Z,108.35
2022-12-04T14:33:37.706Z,122.30
2022-12-04T14:36:11.651Z,138.25
2022-12-04T14:38:40.687Z,154.13
2022-12-04T14:41:08.752Z,132.07
2022-12-04T14:43:41.052Z,128.48
2022-12-04T14:46:17.007Z,115.60
2022-12-04T14:48:55.007Z,107.22
2022-12-04T14:51:31.379Z,116.10
2022-12-04T14:54:09.676Z,112.28
2022-12-04T14:57:01.953Z,108.80
2022-12-04T14:59:40.877Z,115.00
2022-12-04T15:02:13.408Z,130.85
2022-12-04T15:04:46.136Z,125.45
2022-12-04T15:07:23.873Z,111.55
2022-12-04T15:10:11.891Z,116.20
2022-12-04T15:12:47.519Z,94.90
2022-12-04T15:15:21.888Z,84.53
2022-12-04T15:18:00.826Z,84.60
2022-12-04T15:20:36.084Z,87.32
2022-12-04T15:23:13.893Z,116.03
2022-12-04T15:25:46.766Z,102.13
2022-12-04T15:28:18.822Z,53.83
2022-12-04T15:30:50.077Z,52.60
2022-12-04T15:33:21.765Z,51.88
2022-12-04T15:35:55.210Z,51.28
2022-12-04T15:38:25.019Z,57.75
2022-12-04T15:40:56.013Z,57.88
2022-12-04T15:43:28.429Z,67.82
2022-12-04T15:45:56.976Z,59.63
2022-12-04T15:48:27.051Z,48.63
2022-12-04T15:51:01.561Z,47.67
2022-12-04T15:53:33.586Z,48.88
2022-12-04T15:56:04.851Z,44.30
2022-12-04T15:58:34.387Z,46.10
2022-12-04T16:01:05.159Z,48.28
2022-12-04T16:03:38.421Z,55.72
2022-12-04T16:06:19.534Z,79.10
2022-12-04T16:08:50.748Z,57.83
2022-12-04T16:11:31.385Z,45.83
2022-12-04T16:14:17.433Z,51.72
2022-12-04T16:16:48.095Z,47.45
2022-12-04T16:19:19.251Z,46.47
2022-12-04T16:21:47.732Z,41.40
2022-12-04T16:24:16.974Z,41.15
2022-12-04T16:26:45.117Z,40.88
2022-12-04T16:29:13.063Z,44.85
2022-12-04T16:31:41.287Z,44.65
2022-12-04T16:34:10.260Z,43.95
2022-12-04T16:36:38.639Z,40.55
2022-12-04T16:39:06.942Z,40.13
2022-12-04T16:41:36.544Z,40.80
2022-12-04T16:44:04.783Z,45.33
2022-12-04T16:46:33.125Z,43.22
2022-12-04T16:49:07.084Z,45.58
2022-12-04T16:51:37.581Z,51.05
2022-12-04T16:54:05.629Z,46.50
2022-12-04T16:56:33.726Z,43.38
2022-12-04T16:59:05.559Z,53.28
2022-12-04T17:01:40.921Z,48.83
2022-12-04T17:04:09.018Z,51.33
2022-12-04T17:06:37.124Z,50.00
2022-12-04T17:09:05.115Z,62.65
2022-12-04T17:11:33.491Z,67.30
2022-12-04T17:14:02.738Z,67.10
2022-12-04T17:16:33.977Z,62.53
2022-12-04T17:19:02.055Z,57.25
2022-12-04T17:21:30.156Z,52.88
2022-12-04T17:23:58.176Z,58.47
2022-12-04T17:26:27.247Z,58.55
2022-12-04T17:28:55.196Z,50.03
2022-12-04T17:31:25.314Z,50.10
2022-12-04T17:33:55.172Z,51.22
2022-12-04T17:36:26.082Z,58.28
2022-12-04T17:38:55.378Z,51.83
2022-12-04T17:41:23.865Z,53.25
2022-12-04T17:43:51.800Z,59.70
2022-12-04T17:46:24.368Z,56.13
2022-12-04T17:48:56.557Z,51.47
2022-12-04T17:53:53.747Z,47.88
2022-12-04T17:56:23.953Z,55.05
2022-12-04T17:58:52.519Z,53.88
2022-12-04T18:01:23.615Z,52.15
2022-12-04T18:03:52.172Z,61.45
2022-12-04T18:06:23.883Z,54.15
2022-12-04T18:08:52.447Z,59.75
2022-12-04T18:11:22.422Z,59.97
2022-12-04T18:13:50.756Z,60.53
2022-12-04T18:16:18.882Z,56.50
2022-12-04T18:18:47.488Z,53.97
2022-12-04T18:21:16.063Z,64.70
2022-12-04T18:23:45.826Z,56.22
2022-12-04T18:26:15.711Z,71.47
2022-12-04T18:28:43.793Z,58.17
2022-12-04T18:31:12.302Z,78.85
2022-12-04T18:33:42.339Z,70.90
2022-12-04T18:36:15.828Z,69.93
2022-12-04T18:38:46.000Z,76.07
2022-12-04T18:41:15.544Z,57.45
2022-12-04T18:43:45.237Z,72.90
2022-12-04T18:46:17.013Z,68.18
2022-12-04T18:48:46.645Z,63.33
2022-12-04T18:51:17.039Z,60.15
2022-12-04T18:53:46.555Z,57.72
2022-12-04T18:56:15.856Z,59.70
2022-12-04T18:58:44.635Z,58.17
2022-12-04T19:01:16.065Z,57.03
2022-12-04T19:03:44.195Z,64.28
2022-12-04T19:06:13.111Z,56.53
2022-12-04T19:08:43.440Z,62.88
2022-12-04T19:11:15.135Z,63.15
2022-12-04T19:13:43.071Z,81.13
2022-12-04T19:16:12.789Z,100.30
2022-12-04T19:18:42.032Z,92.30
2022-12-04T19:21:10.380Z,90.05
2022-12-04T19:23:38.587Z,93.35
2022-12-04T19:26:07.171Z,88.57
2022-12-04T19:28:37.005Z,71.20
2022-12-04T19:31:05.616Z,85.57
2022-12-04T19:33:33.540Z,86.95
2022-12-04T19:36:03.671Z,72.22
2022-12-04T19:38:32.460Z,62.45
2022-12-04T19:41:05.781Z,68.75
2022-12-04T19:43:33.639Z,57.17
2022-12-04T19:46:03.337Z,55.78
2022-12-04T19:48:31.413Z,72.32
2022-12-04T19:51:03.906Z,74.53
2022-12-04T19:56:09.688Z,62.70
2022-12-04T19:58:37.828Z,64.15
2022-12-04T20:01:11.330Z,81.45
2022-12-04T20:03:39.714Z,78.43
2022-12-04T20:06:12.018Z,79.60
2022-12-04T20:08:40.117Z,71.90
2022-12-04T20:11:11.620Z,67.88
2022-12-04T20:13:40.178Z,71.00
2022-12-04T20:16:12.222Z,60.10
2022-12-04T20:18:41.448Z,64.40
2022-12-04T20:21:11.831Z,67.22
2022-12-04T20:23:40.636Z,59.67
2022-12-04T20:26:12.329Z,61.03
2022-12-04T20:28:40.505Z,39.73
2022-12-04T20:31:15.793Z,68.20
2022-12-04T20:33:44.091Z,71.85
2022-12-04T20:36:12.959Z,72.80
2022-12-04T20:38:41.025Z,60.72
2022-12-04T20:41:10.622Z,77.47
2022-12-04T20:43:38.446Z,70.88
2022-12-04T20:46:16.756Z,65.75
2022-12-04T20:48:48.556Z,65.32
2022-12-04T20:51:17.421Z,55.30
2022-12-04T20:53:45.991Z,67.25
2022-12-04T20:56:14.495Z,52.72
2022-12-04T20:58:42.491Z,52.30
2022-12-04T21:01:11.911Z,59.08
2022-12-04T21:03:41.346Z,56.42
2022-12-04T21:06:13.957Z,57.08
2022-12-04T21:08:57.625Z,62.10
2022-12-04T21:11:27.836Z,58.17
2022-12-04T21:14:14.559Z,56.05
2022-12-04T21:16:43.243Z,55.83
2022-12-04T21:19:14.892Z,57.55
2022-12-04T21:21:43.367Z,60.97
2022-12-04T21:24:15.124Z,53.40
2022-12-04T21:26:43.732Z,54.22
2022-12-04T21:29:11.931Z,54.33
2022-12-04T21:31:40.568Z,52.25
2022-12-04T21:34:11.502Z,56.08
2022-12-04T21:36:41.127Z,56.95
2022-12-04T21:39:09.403Z,55.22
2022-12-04T21:41:55.003Z,59.33
2022-12-04T21:44:23.111Z,54.22
2022-12-04T21:46:51.792Z,61.83
2022-12-04T21:49:20.404Z,55.25
2022-12-04T21:51:58.640Z,55.45
2022-12-04T21:54:27.174Z,55.03
2022-12-04T21:56:56.414Z,55.33
2022-12-04T21:59:24.421Z,55.38
2022-12-04T22:01:53.629Z,53.78
2022-12-04T22:04:22.027Z,50.03
2022-12-04T22:06:51.711Z,53.00
2022-12-04T22:09:19.579Z,49.05
2022-12-04T22:11:47.871Z,53.25
2022-12-04T22:14:15.775Z,53.38
2022-12-04T22:16:43.931Z,57.92
2022-12-04T22:19:12.851Z,54.10
2022-12-04T22:21:41.178Z,57.30
2022-12-04T22:24:11.423Z,52.17
2022-12-04T22:26:40.198Z,55.10
2022-12-04T22:29:34.299Z,51.92
2022-12-04T22:31:56.447Z,51.45
2022-12-04T22:34:24.216Z,48.38
2022-12-04T22:36:52.271Z,49.78
2022-12-04T22:39:21.644Z,55.67
2022-12-04T22:41:49.648Z,49.92
2022-12-04T22:44:17.370Z,50.55
2022-12-04T22:46:45.724Z,49.47
2022-12-04T22:49:13.548Z,53.65
2022-12-04T22:51:41.580Z,51.67
2022-12-04T22:54:14.301Z,49.35
2022-12-04T22:56:44.201Z,62.28
2022-12-04T22:59:12.461Z,69.28
2022-12-04T23:01:40.734Z,55.85
2022-12-04T23:04:08.528Z,59.10
2022-12-04T23:06:37.029Z,58.33
2022-12-04T23:09:07.108Z,51.33
2022-12-04T23:11:35.743Z,55.90
2022-12-04T23:14:09.501Z,51.63
2022-12-04T23:16:38.843Z,56.22
2022-12-04T23:19:07.540Z,56.10
2022-12-04T23:21:35.926Z,54.53
2022-12-04T23:24:03.911Z,58.15
2022-12-04T23:26:34.544Z,51.60
2022-12-04T23:29:02.644Z,51.60
2022-12-04T23:31:33.250Z,54.50
2022-12-04T23:34:02.452Z,47.00
2022-12-04T23:36:30.768Z,52.20
2022-12-04T23:38:59.096Z,50.47
2022-12-04T23:41:28.991Z,49.72
2022-12-04T23:43:57.952Z,53.60
2022-12-04T23:46:28.995Z,49.33
2022-12-04T23:48:58.836Z,56.17
2022-12-04T23:51:27.296Z,55.03
2022-12-04T23:53:55.132Z,55.72
2022-12-04T23:56:25.984Z,50.83
2022-12-04T23:58:55.547Z,52.63
